Omaha, NE (68136)

12:06 AM CST on December 22, 2014 (GMT -0600)
Tiburon Neighborhood | Change Station
CLOSE
Current Station
Personal Weather Station
Location: Gretna, NE
Elevation: 1240 ft
Nearby Weather Stations

Elev 1240 ft 41.16 °N, 96.19 °W | Updated 10 seconds ago

Overcast
Overcast
42.9 °F
Feels Like 37 °F
N
12.0
Wind Variable Wind from SE
Gusts 14.0 mph

Today
High -- | Low -- °F
--% Chance of Precip.
Yesterday
High -- | Low -- °F
Precip. -- in
7:47 AM 4:59 PM
New Moon, 0% visible
Pressure 29.64 in
Visibility 5.0 miles
Clouds Overcast 500 ft
Windchill 37 °F
Dew Point 42 °F
Humidity 98%
Rainfall 0.00 in
Snow Depth Not available.
UV 0.0 out of 12
Pollen .10 out of 12
Air Quality Not available.
Flu Activity Not available.
METAR KMLE 220555Z AUTO 16009KT 5SM -DZ OVC005 07/06 A2964 RMK AO2 T00650055 10065 20055 400650015

More Conditions Fewer Conditions

Pressure 29.64 in
Visibility 5.0 miles
Clouds Overcast 500 ft
Windchill 37 °F
Dew Point 42 °F
Humidity 98%
Rainfall 0.00 in
Snow Depth Not available.
UV 0.0 out of 12
Pollen .10 out of 12
Air Quality Not available.
Flu Activity Not available.
METAR KMLE 220555Z AUTO 16009KT 5SM -DZ OVC005 07/06 A2964 RMK AO2 T00650055 10065 20055 400650015

More Conditions Fewer Conditions

10-Day Weather Forecast

Almanac

Astronomy

Dec. 22, 2014 Rise Set
Actual Time
Civil Twilight
Nautical Twilight
Astronomical Twilight
Moon
Length of Visible Light
Length of Day
Tomorrow will be .
, % of the Moon is Illuminated

Today's Extremes

State Highs State Lows

Community

WunderPhotos

Upload Photos

1,779,550 photos uploaded!

WunderBlogs® & News

Nearby

Air Quality

  Air Quality AQ Index Pollutant
Not available.

Snow Depth

Station Depth Elevation

Earthquake Activity

City Distance Mag. Time & Date
Minimum magnitude displayed is 2.5.

Coastal Water Temperatures

Place Temperature

Nearby Weather Stations